createdAt,value
2018-04-18T00:00:38.192Z,89.10
2018-04-18T00:03:06.254Z,89.70
2018-04-18T00:05:34.798Z,89.90
2018-04-18T00:08:02.862Z,89.30
2018-04-18T00:10:30.939Z,88.60
2018-04-18T00:12:59.335Z,88.00
2018-04-18T00:15:27.865Z,89.00
2018-04-18T00:17:55.930Z,89.80
2018-04-18T00:20:24.448Z,88.80
2018-04-18T00:22:52.510Z,88.70
2018-04-18T00:25:20.577Z,89.30
2018-04-18T00:27:48.806Z,90.20
2018-04-18T00:30:17.264Z,90.70
2018-04-18T00:32:45.335Z,91.10
2018-04-18T00:35:13.795Z,91.30
2018-04-18T00:37:41.848Z,91.50
2018-04-18T00:40:09.919Z,91.20
2018-04-18T00:42:38.631Z,92.20
2018-04-18T00:45:06.688Z,92.10
2018-04-18T00:47:34.792Z,92.10
2018-04-18T00:50:04.071Z,92.70
2018-04-18T00:52:32.128Z,92.50
2018-04-18T00:55:00.201Z,92.50
2018-04-18T00:57:28.581Z,92.80
2018-04-18T00:59:56.632Z,93.00
2018-04-18T01:02:24.697Z,93.10
2018-04-18T01:04:53.416Z,93.70
2018-04-18T01:07:21.475Z,93.60
2018-04-18T01:09:49.534Z,93.70
2018-04-18T01:12:17.945Z,93.60
2018-04-18T01:14:46.009Z,93.80
2018-04-18T01:17:14.559Z,93.80
2018-04-18T01:19:42.824Z,93.60
2018-04-18T01:22:10.872Z,93.70
2018-04-18T01:24:39.704Z,94.40
2018-04-18T01:27:08.242Z,94.30
2018-04-18T01:29:37.064Z,94.40
2018-04-18T01:32:05.134Z,94.80
2018-04-18T01:34:33.363Z,94.50
2018-04-18T01:37:01.414Z,94.50
2018-04-18T01:39:29.506Z,94.60
2018-04-18T01:41:57.876Z,94.40
2018-04-18T01:44:25.930Z,95.20
2018-04-18T01:46:54.010Z,94.90
2018-04-18T01:49:23.586Z,94.90
2018-04-18T01:51:51.637Z,95.10
2018-04-18T01:54:19.716Z,94.60
2018-04-18T01:56:48.131Z,94.60
2018-04-18T01:59:16.240Z,95.10
2018-04-18T02:01:44.258Z,95.20
2018-04-18T02:04:12.662Z,95.00
2018-04-18T02:06:40.725Z,95.20
2018-04-18T02:11:43.311Z,95.20
2018-04-18T02:14:11.383Z,95.50
2018-04-18T02:16:39.446Z,95.30
2018-04-18T02:19:08.508Z,95.30
2018-04-18T02:21:37.320Z,94.90
2018-04-18T02:24:05.374Z,94.90
2018-04-18T02:26:33.885Z,95.30
2018-04-18T02:29:01.986Z,95.10
2018-04-18T02:31:30.054Z,95.60
2018-04-18T02:33:58.732Z,95.50
2018-04-18T02:36:26.820Z,95.70
2018-04-18T02:38:55.647Z,96.10
2018-04-18T02:41:24.181Z,96.10
2018-04-18T02:43:52.251Z,96.20
2018-04-18T02:46:20.310Z,96.30
2018-04-18T02:48:48.701Z,96.00
2018-04-18T02:51:16.780Z,96.20
2018-04-18T02:53:44.847Z,96.40
2018-04-18T02:56:12.949Z,96.50
2018-04-18T02:58:41.024Z,96.50
2018-04-18T03:01:09.085Z,96.70
2018-04-18T03:03:37.424Z,96.40
2018-04-18T03:06:05.498Z,97.00
2018-04-18T03:08:33.556Z,96.60
2018-04-18T03:11:01.939Z,96.70
2018-04-18T03:13:30.020Z,96.20
2018-04-18T03:15:58.081Z,95.70
2018-04-18T03:18:26.244Z,95.40
2018-04-18T03:20:54.721Z,95.10
2018-04-18T03:23:23.284Z,94.70
2018-04-18T03:25:51.602Z,95.10
2018-04-18T03:28:19.661Z,94.90
2018-04-18T03:30:47.750Z,94.80
2018-04-18T03:33:15.853Z,94.80
2018-04-18T03:35:43.931Z,95.10
2018-04-18T03:38:12.021Z,94.80
2018-04-18T03:40:40.340Z,95.10
2018-04-18T03:43:08.408Z,94.90
2018-04-18T03:45:36.485Z,94.70
2018-04-18T03:48:04.921Z,95.00
2018-04-18T03:50:32.984Z,95.50
2018-04-18T03:53:01.054Z,95.70
2018-04-18T03:55:29.684Z,95.60
2018-04-18T03:57:57.773Z,95.70
2018-04-18T04:00:26.601Z,95.30
2018-04-18T04:02:55.129Z,95.30
2018-04-18T04:05:23.209Z,95.60
2018-04-18T04:07:51.273Z,96.60
2018-04-18T04:10:19.639Z,97.10
2018-04-18T04:12:47.741Z,97.60
2018-04-18T04:15:16.565Z,98.20
2018-04-18T04:17:56.329Z,98.10
2018-04-18T04:20:36.235Z,97.90
2018-04-18T04:23:17.343Z,97.00
2018-04-18T04:25:45.856Z,97.00
2018-04-18T04:28:13.927Z,96.40
2018-04-18T04:30:43.244Z,96.20
2018-04-18T04:33:12.549Z,96.00
2018-04-18T04:35:41.375Z,96.10
2018-04-18T04:38:09.477Z,96.10
2018-04-18T04:40:37.991Z,96.30
2018-04-18T04:43:06.053Z,96.20
2018-04-18T04:45:34.131Z,96.30
2018-04-18T04:48:02.485Z,96.30
2018-04-18T04:50:30.551Z,96.40
2018-04-18T04:52:58.650Z,96.60
2018-04-18T04:55:27.021Z,96.70
2018-04-18T04:57:55.090Z,96.50
2018-04-18T05:00:23.175Z,96.30
2018-04-18T05:02:52.461Z,96.70
2018-04-18T05:05:20.530Z,96.60
2018-04-18T05:07:48.615Z,96.50
2018-04-18T05:10:17.071Z,97.00
2018-04-18T05:12:45.120Z,96.90
2018-04-18T05:15:13.199Z,96.50
2018-04-18T05:17:41.813Z,96.90
2018-04-18T05:20:09.895Z,96.70
2018-04-18T05:22:38.730Z,96.60
2018-04-18T05:25:07.414Z,96.50
2018-04-18T05:27:35.496Z,96.60
2018-04-18T05:30:03.569Z,96.50
2018-04-18T05:32:32.071Z,96.40
2018-04-18T05:35:00.170Z,96.20
2018-04-18T05:37:28.999Z,95.90
2018-04-18T05:39:57.519Z,95.90
2018-04-18T05:42:25.609Z,96.10
2018-04-18T05:44:54.439Z,95.90
2018-04-18T05:47:22.655Z,95.90
2018-04-18T05:49:50.734Z,95.80
2018-04-18T05:52:18.805Z,95.70
2018-04-18T05:54:47.163Z,95.20
2018-04-18T05:57:15.235Z,95.30
2018-04-18T05:59:43.303Z,95.60
2018-04-18T06:02:11.991Z,95.60
2018-04-18T06:04:40.089Z,95.80
2018-04-18T06:07:09.341Z,95.80
2018-04-18T06:09:37.595Z,95.80
2018-04-18T06:12:05.669Z,95.50
2018-04-18T06:14:33.735Z,95.40
2018-04-18T06:17:02.265Z,95.40
2018-04-18T06:19:30.349Z,95.70
2018-04-18T06:21:58.447Z,95.10
2018-04-18T06:24:27.720Z,94.10
2018-04-18T06:26:56.757Z,94.00
2018-04-18T06:29:25.563Z,94.50
2018-04-18T06:31:54.076Z,94.40
2018-04-18T06:34:22.160Z,93.60
2018-04-18T06:36:50.225Z,92.40
2018-04-18T06:39:19.822Z,92.60
2018-04-18T06:41:47.916Z,92.10
2018-04-18T06:44:16.755Z,91.10
2018-04-18T06:46:45.275Z,91.00
2018-04-18T06:49:13.353Z,91.00
2018-04-18T06:51:41.422Z,90.70
2018-04-18T06:54:10.096Z,90.30
2018-04-18T06:56:38.157Z,90.90
2018-04-18T06:59:06.221Z,91.50
2018-04-18T07:01:34.642Z,91.00
2018-04-18T07:04:03.473Z,89.70
2018-04-18T07:06:31.541Z,89.70
2018-04-18T07:09:00.069Z,90.70
2018-04-18T07:11:28.127Z,90.40
2018-04-18T07:13:56.229Z,90.10
2018-04-18T07:16:25.489Z,90.20
2018-04-18T07:18:53.573Z,90.10
2018-04-18T07:21:21.703Z,89.70
2018-04-18T07:23:50.013Z,90.20
2018-04-18T07:26:18.089Z,90.00
2018-04-18T07:28:46.637Z,89.60
2018-04-18T07:31:15.171Z,89.70
2018-04-18T07:33:43.222Z,88.60
2018-04-18T07:36:11.328Z,89.80
2018-04-18T07:38:40.609Z,89.00
2018-04-18T07:41:08.682Z,89.00
2018-04-18T07:43:36.768Z,90.30
2018-04-18T07:46:06.032Z,86.60
2018-04-18T07:48:34.098Z,86.60
2018-04-18T07:51:02.378Z,86.30
2018-04-18T07:53:30.620Z,86.70
2018-04-18T07:55:58.691Z,87.70
2018-04-18T07:58:26.778Z,83.80
2018-04-18T08:00:55.200Z,84.00
2018-04-18T08:03:23.268Z,87.10
2018-04-18T08:05:51.342Z,86.70
2018-04-18T08:08:19.604Z,86.80
2018-04-18T08:10:47.682Z,85.20
2018-04-18T08:13:15.746Z,83.20
2018-04-18T08:15:44.142Z,82.90
2018-04-18T08:18:12.969Z,84.20
2018-04-18T08:20:41.042Z,84.20
2018-04-18T08:23:09.596Z,82.90
2018-04-18T08:25:38.436Z,83.20
2018-04-18T08:28:06.522Z,83.20
2018-04-18T08:30:34.870Z,83.10
2018-04-18T08:33:02.932Z,81.50
2018-04-18T08:35:31.018Z,81.70
2018-04-18T08:38:00.122Z,79.50
2018-04-18T08:40:28.189Z,80.70
2018-04-18T08:42:56.280Z,76.90
2018-04-18T08:45:24.987Z,80.40
2018-04-18T08:47:53.051Z,78.60
2018-04-18T08:50:21.142Z,76.90
2018-04-18T08:52:50.419Z,75.70
2018-04-18T08:55:18.479Z,75.60
2018-04-18T08:57:46.544Z,73.10
2018-04-18T09:00:14.943Z,71.00
2018-04-18T09:02:43.009Z,71.70
2018-04-18T09:05:11.085Z,68.90
2018-04-18T09:07:39.447Z,67.90
2018-04-18T09:10:07.518Z,67.30
2018-04-18T09:12:35.609Z,67.00
2018-04-18T09:15:03.993Z,68.00
2018-04-18T09:17:32.049Z,67.20
2018-04-18T09:20:00.110Z,66.80
2018-04-18T09:22:28.492Z,66.40
2018-04-18T09:24:56.545Z,65.70
2018-04-18T09:27:24.618Z,65.60
2018-04-18T09:29:53.019Z,65.40
2018-04-18T09:32:21.331Z,66.80
2018-04-18T09:34:49.397Z,67.90
2018-04-18T09:37:17.840Z,70.60
2018-04-18T09:39:45.982Z,68.10
2018-04-18T09:42:14.767Z,69.20
2018-04-18T09:44:43.285Z,69.20
2018-04-18T09:47:11.357Z,66.20
2018-04-18T09:49:39.422Z,64.30
2018-04-18T09:52:08.130Z,63.30
2018-04-18T09:54:36.189Z,66.30
2018-04-18T09:57:04.261Z,62.40
2018-04-18T09:59:32.972Z,61.10
2018-04-18T10:02:07.491Z,60.10
2018-04-18T10:04:51.425Z,58.70
2018-04-18T10:07:20.253Z,57.20
2018-04-18T10:09:48.565Z,57.00
2018-04-18T10:12:16.633Z,57.80
2018-04-18T10:14:44.711Z,55.70
2018-04-18T10:17:13.090Z,58.90
2018-04-18T10:19:41.154Z,56.40
2018-04-18T10:22:09.231Z,58.20
2018-04-18T10:24:37.608Z,55.80
2018-04-18T10:27:05.685Z,55.60
2018-04-18T10:29:33.748Z,54.10
2018-04-18T10:32:02.138Z,53.00
2018-04-18T10:34:30.871Z,52.90
2018-04-18T10:36:59.674Z,51.20
2018-04-18T10:39:28.202Z,51.20
2018-04-18T10:41:56.256Z,50.30
2018-04-18T10:44:24.311Z,50.40
2018-04-18T10:46:52.548Z,47.90
2018-04-18T10:49:20.605Z,48.50
2018-04-18T10:51:49.422Z,47.70
2018-04-18T10:54:18.005Z,47.70
2018-04-18T10:56:46.059Z,46.40
2018-04-18T10:59:14.105Z,47.50
2018-04-18T11:01:42.373Z,45.60
2018-04-18T11:04:10.430Z,47.70
2018-04-18T11:06:38.521Z,45.60
2018-04-18T11:09:07.197Z,41.60
2018-04-18T11:11:35.251Z,42.70
2018-04-18T11:14:03.331Z,43.00
2018-04-18T11:16:31.708Z,42.90
2018-04-18T11:18:59.770Z,43.20
2018-04-18T11:21:27.857Z,43.90
2018-04-18T11:23:56.546Z,41.60
2018-04-18T11:26:24.602Z,41.90
2018-04-18T11:28:52.672Z,41.00
2018-04-18T11:31:21.072Z,41.30
2018-04-18T11:33:49.134Z,41.30
2018-04-18T11:36:17.675Z,41.80
2018-04-18T11:38:46.185Z,40.50
2018-04-18T11:41:14.250Z,40.20
2018-04-18T11:43:42.341Z,39.80
2018-04-18T11:46:10.715Z,39.20
2018-04-18T11:48:38.767Z,38.80
2018-04-18T11:51:06.829Z,39.20
2018-04-18T11:53:35.241Z,39.30
2018-04-18T11:56:03.314Z,38.20
2018-04-18T11:58:31.370Z,37.10
2018-04-18T12:00:59.742Z,36.10
2018-04-18T12:03:27.818Z,37.70
2018-04-18T12:05:55.913Z,36.40
2018-04-18T12:08:24.066Z,37.10
2018-04-18T12:10:52.126Z,37.00
2018-04-18T12:13:20.203Z,37.00
2018-04-18T12:15:48.374Z,34.60
2018-04-18T12:18:16.431Z,36.00
2018-04-18T12:20:44.528Z,36.70
2018-04-18T12:23:13.010Z,34.20
2018-04-18T12:25:41.066Z,34.10
2018-04-18T12:28:09.144Z,33.90
2018-04-18T12:30:37.833Z,31.00
2018-04-18T12:33:05.924Z,33.30
2018-04-18T12:35:33.985Z,34.10
2018-04-18T12:38:02.241Z,30.00
2018-04-18T12:40:30.320Z,29.50
2018-04-18T12:42:58.385Z,30.20
2018-04-18T12:45:26.877Z,29.90
2018-04-18T12:47:54.945Z,31.20
2018-04-18T12:50:23.017Z,30.80
2018-04-18T12:52:51.704Z,29.30
2018-04-18T12:55:19.794Z,29.90
2018-04-18T12:57:47.855Z,32.50
2018-04-18T13:00:16.229Z,30.40
2018-04-18T13:02:44.324Z,29.80
2018-04-18T13:05:13.151Z,30.80
2018-04-18T13:07:41.671Z,30.70
2018-04-18T13:10:09.741Z,30.60
2018-04-18T13:12:37.796Z,30.50
2018-04-18T13:15:06.191Z,30.50
2018-04-18T13:17:34.290Z,28.90
2018-04-18T13:20:03.117Z,29.10
2018-04-18T13:22:31.627Z,29.10
2018-04-18T13:24:59.710Z,28.80
2018-04-18T13:27:27.764Z,28.70
2018-04-18T13:29:56.150Z,26.90
2018-04-18T13:32:24.219Z,28.60
2018-04-18T13:34:52.288Z,27.90
2018-04-18T13:37:20.672Z,27.00
2018-04-18T13:39:49.522Z,26.50
2018-04-18T13:42:17.584Z,25.20
2018-04-18T13:44:46.120Z,26.90
2018-04-18T13:47:14.197Z,25.30
2018-04-18T13:49:42.300Z,24.60
2018-04-18T13:52:11.560Z,24.80
2018-04-18T13:54:39.675Z,24.80
2018-04-18T13:57:07.710Z,24.30
2018-04-18T13:59:36.083Z,25.20
2018-04-18T14:02:04.155Z,25.60
2018-04-18T14:04:32.234Z,25.20
2018-04-18T14:07:00.596Z,24.10
2018-04-18T14:09:28.651Z,23.40
2018-04-18T14:11:56.748Z,24.00
2018-04-18T14:14:25.114Z,24.40
2018-04-18T14:16:53.177Z,24.30
2018-04-18T14:19:21.243Z,24.30
2018-04-18T14:21:49.638Z,23.30
2018-04-18T14:24:17.729Z,23.00
2018-04-18T14:26:45.802Z,23.90
2018-04-18T14:29:14.461Z,23.50
2018-04-18T14:31:42.665Z,23.40
2018-04-18T14:34:11.486Z,23.80
2018-04-18T14:36:40.218Z,23.70
2018-04-18T14:39:08.282Z,24.40
2018-04-18T14:41:36.831Z,23.00
2018-04-18T14:44:05.096Z,24.10
2018-04-18T14:46:33.145Z,24.60
2018-04-18T14:49:01.969Z,24.00
2018-04-18T14:51:30.501Z,23.90
2018-04-18T14:53:58.570Z,23.60
2018-04-18T14:56:26.624Z,24.50
2018-04-18T14:58:55.119Z,23.90
2018-04-18T15:01:23.134Z,24.30
2018-04-18T15:03:51.212Z,24.60
2018-04-18T15:06:19.846Z,24.90
2018-04-18T15:08:47.903Z,25.40
2018-04-18T15:11:15.953Z,25.20
2018-04-18T15:13:44.393Z,24.80
2018-04-18T15:16:12.453Z,25.30
2018-04-18T15:18:41.267Z,25.10
2018-04-18T15:21:09.822Z,25.10
2018-04-18T15:23:38.642Z,25.40
2018-04-18T15:26:06.693Z,25.30
2018-04-18T15:28:35.308Z,25.70
2018-04-18T15:31:04.125Z,25.50
2018-04-18T15:33:32.186Z,25.40
2018-04-18T15:36:00.679Z,25.60
2018-04-18T15:38:28.765Z,25.80
2018-04-18T15:40:56.835Z,25.20
2018-04-18T15:43:25.680Z,25.00
2018-04-18T15:45:53.741Z,25.90
2018-04-18T15:48:21.791Z,26.20
2018-04-18T15:50:50.043Z,25.50
2018-04-18T15:53:18.105Z,25.70
2018-04-18T15:55:46.160Z,25.50
2018-04-18T15:58:14.545Z,26.70
2018-04-18T16:00:42.638Z,25.80
2018-04-18T16:03:10.701Z,26.70
2018-04-18T16:05:39.067Z,26.60
2018-04-18T16:08:07.145Z,26.80
2018-04-18T16:10:35.210Z,26.80
2018-04-18T16:13:03.917Z,26.70
2018-04-18T16:15:32.808Z,26.90
2018-04-18T16:18:00.862Z,26.60
2018-04-18T16:20:28.912Z,27.50
2018-04-18T16:22:57.442Z,26.40
2018-04-18T16:25:26.268Z,26.70
2018-04-18T16:27:54.330Z,26.70
2018-04-18T16:30:34.504Z,26.80
2018-04-18T16:33:03.215Z,26.70
2018-04-18T16:35:31.320Z,26.60
2018-04-18T16:38:00.161Z,26.20
2018-04-18T16:40:28.356Z,26.20
2018-04-18T16:42:56.445Z,26.00
2018-04-18T16:45:25.440Z,26.20
2018-04-18T16:47:54.698Z,26.50
2018-04-18T16:50:22.768Z,26.40
2018-04-18T16:52:50.832Z,26.90
2018-04-18T16:55:19.256Z,26.70
2018-04-18T16:57:48.080Z,26.40
2018-04-18T17:00:16.147Z,26.40
2018-04-18T17:02:44.714Z,26.60
2018-04-18T17:05:13.536Z,25.90
2018-04-18T17:07:41.596Z,25.90
2018-04-18T17:10:10.121Z,25.90
2018-04-18T17:12:38.191Z,26.40
2018-04-18T17:15:06.294Z,27.10
2018-04-18T17:17:35.287Z,25.20
2018-04-18T17:20:04.123Z,24.90
2018-04-18T17:22:32.191Z,24.90
2018-04-18T17:25:00.701Z,24.90
2018-04-18T17:27:28.762Z,24.80
2018-04-18T17:29:56.814Z,25.80
2018-04-18T17:32:25.223Z,25.70
2018-04-18T17:34:53.276Z,26.00
2018-04-18T17:37:21.335Z,25.70
2018-04-18T17:39:49.775Z,25.20
2018-04-18T17:42:18.595Z,26.00
2018-04-18T17:44:46.644Z,25.90
2018-04-18T17:47:15.494Z,25.70
2018-04-18T17:49:43.532Z,25.90
2018-04-18T17:52:11.578Z,26.90
2018-04-18T17:54:40.020Z,27.00
2018-04-18T17:57:08.061Z,27.30
2018-04-18T17:59:36.138Z,28.80
2018-04-18T18:02:04.514Z,29.00
2018-04-18T18:04:32.570Z,29.40
2018-04-18T18:07:00.646Z,29.90
2018-04-18T18:09:29.040Z,31.20
2018-04-18T18:11:57.101Z,32.90
2018-04-18T18:14:25.200Z,32.80
2018-04-18T18:16:53.574Z,32.90
2018-04-18T18:19:21.641Z,34.40
2018-04-18T18:21:49.736Z,35.50
2018-04-18T18:24:18.868Z,36.40
2018-04-18T18:26:46.934Z,36.20
2018-04-18T18:29:15.004Z,36.80
2018-04-18T18:31:43.235Z,36.20
2018-04-18T18:34:11.284Z,38.20
2018-04-18T18:36:39.382Z,39.00
2018-04-18T18:39:08.067Z,38.80
2018-04-18T18:41:36.134Z,39.80
2018-04-18T18:44:04.195Z,38.60
2018-04-18T18:46:32.592Z,38.00
2018-04-18T18:49:01.110Z,38.20
2018-04-18T18:51:29.178Z,38.30
2018-04-18T18:53:57.543Z,40.00
2018-04-18T18:56:25.598Z,37.70
2018-04-18T18:58:53.664Z,38.90
2018-04-18T19:01:23.104Z,39.20
2018-04-18T19:03:51.189Z,39.10
2018-04-18T19:06:19.393Z,41.60
2018-04-18T19:08:47.968Z,41.40
2018-04-18T19:11:16.029Z,39.00
2018-04-18T19:13:44.136Z,38.30
2018-04-18T19:16:12.500Z,39.70
2018-04-18T19:18:40.561Z,39.60
2018-04-18T19:21:08.636Z,39.70
2018-04-18T19:23:37.322Z,40.60
2018-04-18T19:26:05.394Z,41.40
2018-04-18T19:28:33.631Z,40.80
2018-04-18T19:31:01.626Z,41.40
2018-04-18T19:33:29.684Z,38.50
2018-04-18T19:35:57.790Z,40.00
2018-04-18T19:38:26.406Z,40.80
2018-04-18T19:40:54.460Z,40.80
2018-04-18T19:43:23.288Z,40.70
2018-04-18T19:45:51.518Z,40.60
2018-04-18T19:48:20.358Z,42.60
2018-04-18T19:50:49.043Z,41.80
2018-04-18T19:53:17.570Z,41.80
2018-04-18T19:55:45.640Z,42.70
2018-04-18T19:58:14.064Z,43.10
2018-04-18T20:00:42.703Z,42.70
2018-04-18T20:03:10.757Z,43.20
2018-04-18T20:05:38.818Z,42.50
2018-04-18T20:08:07.251Z,43.70
2018-04-18T20:10:36.061Z,44.60
2018-04-18T20:13:04.131Z,44.40
2018-04-18T20:15:32.666Z,44.20
2018-04-18T20:18:00.736Z,44.70
2018-04-18T20:20:28.793Z,44.60
2018-04-18T20:22:56.911Z,45.20
2018-04-18T20:25:24.973Z,45.10
2018-04-18T20:27:53.793Z,45.60
2018-04-18T20:30:22.014Z,45.60
2018-04-18T20:32:50.125Z,46.70
2018-04-18T20:35:18.191Z,46.50
2018-04-18T20:37:46.511Z,46.70
2018-04-18T20:40:14.591Z,46.20
2018-04-18T20:42:48.553Z,47.00
2018-04-18T20:45:17.238Z,46.70
2018-04-18T20:47:45.303Z,47.30
2018-04-18T20:50:13.375Z,47.00
2018-04-18T20:52:42.839Z,47.10
2018-04-18T20:55:10.888Z,46.40
2018-04-18T20:57:39.716Z,46.30
2018-04-18T21:00:08.879Z,46.30
2018-04-18T21:02:36.937Z,46.20
2018-04-18T21:05:05.008Z,46.10
2018-04-18T21:07:34.140Z,48.30
2018-04-18T21:10:02.231Z,48.30
2018-04-18T21:12:31.400Z,51.20
2018-04-18T21:15:00.270Z,51.80
2018-04-18T21:17:28.331Z,50.60
2018-04-18T21:19:56.380Z,52.50
2018-04-18T21:22:25.011Z,53.60
2018-04-18T21:24:53.094Z,53.60
2018-04-18T21:27:21.144Z,55.40
2018-04-18T21:29:49.546Z,55.60
2018-04-18T21:32:17.608Z,57.50
2018-04-18T21:34:45.682Z,57.40
2018-04-18T21:37:14.046Z,58.60
2018-04-18T21:39:42.124Z,56.90
2018-04-18T21:42:10.184Z,56.00
2018-04-18T21:44:38.568Z,58.00
2018-04-18T21:47:06.636Z,61.40
2018-04-18T21:49:34.697Z,63.40
2018-04-18T21:52:03.104Z,61.90
2018-04-18T21:54:31.828Z,61.30
2018-04-18T21:57:00.630Z,63.00
2018-04-18T21:59:29.136Z,62.60
2018-04-18T22:01:57.728Z,62.80
2018-04-18T22:04:25.784Z,62.70
2018-04-18T22:06:54.285Z,60.10
2018-04-18T22:09:22.356Z,58.20
2018-04-18T22:11:50.414Z,60.20
2018-04-18T22:14:18.807Z,61.80
2018-04-18T22:16:46.944Z,60.40
2018-04-18T22:19:14.944Z,58.60
2018-04-18T22:21:43.324Z,59.80
2018-04-18T22:24:11.400Z,58.40
2018-04-18T22:26:39.452Z,58.60
2018-04-18T22:29:07.876Z,57.20
2018-04-18T22:31:36.705Z,59.00
2018-04-18T22:34:04.769Z,59.00
2018-04-18T22:36:33.293Z,58.50
2018-04-18T22:39:01.357Z,59.00
2018-04-18T22:41:29.421Z,60.90
2018-04-18T22:43:58.150Z,58.80
2018-04-18T22:46:26.975Z,62.60
2018-04-18T22:48:55.037Z,63.40
2018-04-18T22:51:23.559Z,63.10
2018-04-18T22:53:51.618Z,64.00
2018-04-18T22:56:20.175Z,67.30
2018-04-18T22:58:48.690Z,66.70
2018-04-18T23:01:16.748Z,69.00
2018-04-18T23:03:44.820Z,68.30
2018-04-18T23:06:13.204Z,69.00
2018-04-18T23:08:41.279Z,68.30
2018-04-18T23:11:09.363Z,68.40
2018-04-18T23:13:37.788Z,71.80
2018-04-18T23:16:05.862Z,71.50
2018-04-18T23:18:33.928Z,69.50
2018-04-18T23:21:02.554Z,70.80
2018-04-18T23:23:30.653Z,70.60
2018-04-18T23:25:59.492Z,68.10
2018-04-18T23:28:27.993Z,67.90
2018-04-18T23:30:56.074Z,70.30
2018-04-18T23:33:24.133Z,71.90
2018-04-18T23:35:52.536Z,74.40
2018-04-18T23:38:20.632Z,73.70
2018-04-18T23:40:48.703Z,74.50
2018-04-18T23:43:17.705Z,74.10
2018-04-18T23:45:45.805Z,74.00
2018-04-18T23:48:13.864Z,74.10
2018-04-18T23:50:42.193Z,73.40
2018-04-18T23:53:10.285Z,72.00
2018-04-18T23:55:39.118Z,72.40
2018-04-18T23:58:08.095Z,72.30
